sensor_id;sensor_type;location;lat;lon;timestamp;P1;durP1;ratioP1;P2;durP2;ratioP2
25980;SDS011;13772;52.996;9.124;2023-01-25T08:10:53;12.80;;;11.23;;
25980;SDS011;13772;52.996;9.124;2023-01-25T08:13:18;15.00;;;11.38;;
25980;SDS011;13772;52.996;9.124;2023-01-25T08:15:51;14.50;;;12.15;;
25980;SDS011;13772;52.996;9.124;2023-01-25T08:18:16;15.70;;;12.35;;
25980;SDS011;13772;52.996;9.124;2023-01-25T08:20:41;15.35;;;13.07;;
25980;SDS011;13772;52.996;9.124;2023-01-25T08:23:07;18.27;;;13.77;;
25980;SDS011;13772;52.996;9.124;2023-01-25T08:25:32;18.65;;;15.00;;
25980;SDS011;13772;52.996;9.124;2023-01-25T08:27:57;20.58;;;16.42;;
25980;SDS011;13772;52.996;9.124;2023-01-25T08:30:22;19.92;;;15.27;;
25980;SDS011;13772;52.996;9.124;2023-01-25T08:32:47;21.40;;;16.17;;
25980;SDS011;13772;52.996;9.124;2023-01-25T08:35:13;22.00;;;16.92;;
25980;SDS011;13772;52.996;9.124;2023-01-25T08:37:38;22.95;;;17.65;;
25980;SDS011;13772;52.996;9.124;2023-01-25T08:40:03;25.02;;;18.45;;
25980;SDS011;13772;52.996;9.124;2023-01-25T08:42:28;27.83;;;19.58;;
25980;SDS011;13772;52.996;9.124;2023-01-25T08:44:54;29.38;;;20.08;;
25980;SDS011;13772;52.996;9.124;2023-01-25T08:47:19;28.85;;;19.67;;
25980;SDS011;13772;52.996;9.124;2023-01-25T08:49:44;29.23;;;20.08;;
25980;SDS011;13772;52.996;9.124;2023-01-25T08:52:10;30.98;;;20.60;;
25980;SDS011;13772;52.996;9.124;2023-01-25T08:54:38;33.08;;;21.90;;
25980;SDS011;13772;52.996;9.124;2023-01-25T08:57:07;30.90;;;21.17;;
25980;SDS011;13772;52.996;9.124;2023-01-25T08:59:32;32.03;;;20.65;;
25980;SDS011;13772;52.996;9.124;2023-01-25T09:01:57;29.90;;;19.35;;
25980;SDS011;13772;52.996;9.124;2023-01-25T09:04:23;27.50;;;17.50;;
25980;SDS011;13772;52.996;9.124;2023-01-25T09:06:52;28.50;;;18.50;;
25980;SDS011;13772;52.996;9.124;2023-01-25T09:09:18;29.25;;;18.63;;
25980;SDS011;13772;52.996;9.124;2023-01-25T09:11:43;33.65;;;20.80;;
25980;SDS011;13772;52.996;9.124;2023-01-25T09:14:08;31.77;;;20.35;;
25980;SDS011;13772;52.996;9.124;2023-01-25T09:16:33;33.08;;;21.52;;
25980;SDS011;13772;52.996;9.124;2023-01-25T09:19:00;35.20;;;22.43;;
25980;SDS011;13772;52.996;9.124;2023-01-25T09:21:25;36.30;;;23.37;;
25980;SDS011;13772;52.996;9.124;2023-01-25T09:23:51;37.53;;;23.63;;
25980;SDS011;13772;52.996;9.124;2023-01-25T09:26:17;38.25;;;23.35;;
25980;SDS011;13772;52.996;9.124;2023-01-25T09:28:45;35.83;;;22.53;;
25980;SDS011;13772;52.996;9.124;2023-01-25T09:31:10;37.07;;;21.97;;
25980;SDS011;13772;52.996;9.124;2023-01-25T09:34:00;38.65;;;23.52;;
25980;SDS011;13772;52.996;9.124;2023-01-25T09:36:25;40.57;;;22.67;;
25980;SDS011;13772;52.996;9.124;2023-01-25T09:38:50;40.10;;;23.40;;
25980;SDS011;13772;52.996;9.124;2023-01-25T09:43:45;37.33;;;21.33;;
25980;SDS011;13772;52.996;9.124;2023-01-25T09:48:49;36.10;;;20.70;;
25980;SDS011;13772;52.996;9.124;2023-01-25T09:51:29;32.83;;;19.10;;
25980;SDS011;13772;52.996;9.124;2023-01-25T09:54:02;31.90;;;19.23;;
25980;SDS011;13772;52.996;9.124;2023-01-25T09:56:29;35.27;;;20.03;;
25980;SDS011;13772;52.996;9.124;2023-01-25T09:58:57;35.35;;;20.92;;
25980;SDS011;13772;52.996;9.124;2023-01-25T10:01:25;33.90;;;19.13;;
25980;SDS011;13772;52.996;9.124;2023-01-25T10:04:00;34.20;;;20.50;;
25980;SDS011;13772;52.996;9.124;2023-01-25T10:06:28;35.97;;;20.30;;
25980;SDS011;13772;52.996;9.124;2023-01-25T10:11:27;29.70;;;17.97;;
25980;SDS011;13772;52.996;9.124;2023-01-25T10:13:53;33.20;;;20.67;;
25980;SDS011;13772;52.996;9.124;2023-01-25T10:16:30;36.07;;;20.60;;
25980;SDS011;13772;52.996;9.124;2023-01-25T10:21:40;35.10;;;20.73;;
25980;SDS011;13772;52.996;9.124;2023-01-25T10:26:35;32.50;;;18.87;;
25980;SDS011;13772;52.996;9.124;2023-01-25T10:33:54;33.93;;;19.47;;
25980;SDS011;13772;52.996;9.124;2023-01-25T10:36:20;33.83;;;19.73;;
25980;SDS011;13772;52.996;9.124;2023-01-25T10:38:47;31.53;;;18.20;;
25980;SDS011;13772;52.996;9.124;2023-01-25T10:43:48;30.60;;;17.03;;
25980;SDS011;13772;52.996;9.124;2023-01-25T10:46:34;31.00;;;16.73;;
25980;SDS011;13772;52.996;9.124;2023-01-25T10:49:01;28.53;;;15.30;;
25980;SDS011;13772;52.996;9.124;2023-01-25T10:51:27;32.43;;;19.30;;
25980;SDS011;13772;52.996;9.124;2023-01-25T10:53:57;33.60;;;19.60;;
25980;SDS011;13772;52.996;9.124;2023-01-25T10:56:23;34.90;;;18.97;;
25980;SDS011;13772;52.996;9.124;2023-01-25T10:58:50;32.37;;;15.97;;
25980;SDS011;13772;52.996;9.124;2023-01-25T11:01:31;33.83;;;19.30;;
25980;SDS011;13772;52.996;9.124;2023-01-25T11:03:57;31.45;;;18.50;;
25980;SDS011;13772;52.996;9.124;2023-01-25T11:06:46;32.57;;;18.00;;
25980;SDS011;13772;52.996;9.124;2023-01-25T11:11:52;29.77;;;17.27;;
25980;SDS011;13772;52.996;9.124;2023-01-25T11:14:18;31.80;;;17.33;;
25980;SDS011;13772;52.996;9.124;2023-01-25T11:16:44;31.73;;;18.30;;
25980;SDS011;13772;52.996;9.124;2023-01-25T11:21:54;34.83;;;19.63;;
25980;SDS011;13772;52.996;9.124;2023-01-25T11:24:23;33.97;;;18.83;;
25980;SDS011;13772;52.996;9.124;2023-01-25T11:26:49;32.37;;;18.83;;
25980;SDS011;13772;52.996;9.124;2023-01-25T11:29:18;34.00;;;18.90;;
25980;SDS011;13772;52.996;9.124;2023-01-25T11:31:45;35.95;;;20.60;;
25980;SDS011;13772;52.996;9.124;2023-01-25T11:34:12;36.90;;;20.30;;
25980;SDS011;13772;52.996;9.124;2023-01-25T11:36:43;35.17;;;20.50;;
25980;SDS011;13772;52.996;9.124;2023-01-25T11:44:41;32.33;;;18.17;;
25980;SDS011;13772;52.996;9.124;2023-01-25T11:47:11;32.50;;;18.63;;
25980;SDS011;13772;52.996;9.124;2023-01-25T11:52:33;30.40;;;16.93;;
25980;SDS011;13772;52.996;9.124;2023-01-25T11:57:28;29.00;;;15.10;;
25980;SDS011;13772;52.996;9.124;2023-01-25T12:00:02;26.53;;;14.87;;
25980;SDS011;13772;52.996;9.124;2023-01-25T12:10:21;32.50;;;17.30;;
25980;SDS011;13772;52.996;9.124;2023-01-25T12:12:57;30.97;;;16.77;;
25980;SDS011;13772;52.996;9.124;2023-01-25T12:15:29;31.00;;;16.03;;
25980;SDS011;13772;52.996;9.124;2023-01-25T12:18:07;29.33;;;15.67;;
25980;SDS011;13772;52.996;9.124;2023-01-25T12:20:46;41.00;;;19.77;;
25980;SDS011;13772;52.996;9.124;2023-01-25T12:28:49;33.90;;;14.57;;
25980;SDS011;13772;52.996;9.124;2023-01-25T12:31:21;29.27;;;15.33;;
25980;SDS011;13772;52.996;9.124;2023-01-25T12:34:00;33.70;;;16.33;;
25980;SDS011;13772;52.996;9.124;2023-01-25T12:36:42;36.25;;;17.15;;
25980;SDS011;13772;52.996;9.124;2023-01-25T12:39:12;37.40;;;17.97;;
25980;SDS011;13772;52.996;9.124;2023-01-25T12:41:45;34.33;;;18.48;;
25980;SDS011;13772;52.996;9.124;2023-01-25T12:44:18;38.80;;;18.00;;
25980;SDS011;13772;52.996;9.124;2023-01-25T12:49:21;44.10;;;21.43;;
25980;SDS011;13772;52.996;9.124;2023-01-25T12:51:47;36.47;;;18.03;;
25980;SDS011;13772;52.996;9.124;2023-01-25T12:54:16;34.03;;;16.40;;
25980;SDS011;13772;52.996;9.124;2023-01-25T12:57:02;37.03;;;18.47;;
25980;SDS011;13772;52.996;9.124;2023-01-25T13:01:57;40.93;;;17.63;;
25980;SDS011;13772;52.996;9.124;2023-01-25T13:12:09;30.80;;;16.67;;
25980;SDS011;13772;52.996;9.124;2023-01-25T13:14:38;33.13;;;16.73;;
25980;SDS011;13772;52.996;9.124;2023-01-25T13:17:24;29.77;;;15.82;;
25980;SDS011;13772;52.996;9.124;2023-01-25T13:19:53;32.53;;;17.23;;
25980;SDS011;13772;52.996;9.124;2023-01-25T13:27:30;40.73;;;20.37;;
25980;SDS011;13772;52.996;9.124;2023-01-25T13:29:57;39.33;;;18.77;;
25980;SDS011;13772;52.996;9.124;2023-01-25T13:39:54;36.40;;;16.83;;
25980;SDS011;13772;52.996;9.124;2023-01-25T13:42:38;39.83;;;17.70;;
25980;SDS011;13772;52.996;9.124;2023-01-25T13:47:32;31.83;;;14.63;;
25980;SDS011;13772;52.996;9.124;2023-01-25T13:50:19;34.53;;;16.67;;
25980;SDS011;13772;52.996;9.124;2023-01-25T13:52:59;34.80;;;15.67;;
25980;SDS011;13772;52.996;9.124;2023-01-25T13:55:24;37.27;;;17.30;;
25980;SDS011;13772;52.996;9.124;2023-01-25T13:57:50;35.90;;;18.37;;
25980;SDS011;13772;52.996;9.124;2023-01-25T14:00:16;37.80;;;19.30;;
25980;SDS011;13772;52.996;9.124;2023-01-25T14:02:42;38.97;;;18.73;;
25980;SDS011;13772;52.996;9.124;2023-01-25T14:05:23;35.87;;;18.60;;
25980;SDS011;13772;52.996;9.124;2023-01-25T14:07:50;37.67;;;18.20;;
25980;SDS011;13772;52.996;9.124;2023-01-25T14:10:17;37.43;;;18.97;;
25980;SDS011;13772;52.996;9.124;2023-01-25T14:12:43;38.50;;;19.73;;
25980;SDS011;13772;52.996;9.124;2023-01-25T14:15:09;43.00;;;20.90;;
25980;SDS011;13772;52.996;9.124;2023-01-25T14:17:36;39.43;;;18.83;;
25980;SDS011;13772;52.996;9.124;2023-01-25T14:20:01;37.73;;;19.80;;
25980;SDS011;13772;52.996;9.124;2023-01-25T14:22:36;43.20;;;19.80;;
25980;SDS011;13772;52.996;9.124;2023-01-25T14:27:26;43.07;;;21.87;;
25980;SDS011;13772;52.996;9.124;2023-01-25T14:29:51;45.40;;;22.77;;
25980;SDS011;13772;52.996;9.124;2023-01-25T14:32:17;46.13;;;22.13;;
25980;SDS011;13772;52.996;9.124;2023-01-25T14:34:44;43.67;;;22.83;;
25980;SDS011;13772;52.996;9.124;2023-01-25T14:37:17;46.93;;;23.90;;
25980;SDS011;13772;52.996;9.124;2023-01-25T14:39:44;47.90;;;23.97;;
25980;SDS011;13772;52.996;9.124;2023-01-25T14:42:10;54.83;;;26.43;;
25980;SDS011;13772;52.996;9.124;2023-01-25T14:44:35;46.17;;;23.53;;
25980;SDS011;13772;52.996;9.124;2023-01-25T14:47:20;46.97;;;25.93;;
25980;SDS011;13772;52.996;9.124;2023-01-25T14:49:46;46.30;;;23.97;;
25980;SDS011;13772;52.996;9.124;2023-01-25T14:52:12;60.90;;;30.60;;
25980;SDS011;13772;52.996;9.124;2023-01-25T14:57:19;56.20;;;29.47;;
25980;SDS011;13772;52.996;9.124;2023-01-25T14:59:49;56.07;;;29.20;;
25980;SDS011;13772;52.996;9.124;2023-01-25T15:02:22;47.20;;;24.97;;
25980;SDS011;13772;52.996;9.124;2023-01-25T15:05:02;48.57;;;25.60;;
25980;SDS011;13772;52.996;9.124;2023-01-25T15:07:44;50.15;;;25.83;;
25980;SDS011;13772;52.996;9.124;2023-01-25T15:12:37;48.13;;;26.50;;
25980;SDS011;13772;52.996;9.124;2023-01-25T15:15:16;49.13;;;25.50;;
25980;SDS011;13772;52.996;9.124;2023-01-25T15:17:45;53.20;;;29.73;;
25980;SDS011;13772;52.996;9.124;2023-01-25T15:22:55;43.43;;;23.67;;
25980;SDS011;13772;52.996;9.124;2023-01-25T15:25:20;50.67;;;26.57;;
25980;SDS011;13772;52.996;9.124;2023-01-25T15:27:46;49.00;;;26.07;;
25980;SDS011;13772;52.996;9.124;2023-01-25T15:30:12;45.13;;;24.63;;
25980;SDS011;13772;52.996;9.124;2023-01-25T15:32:37;47.13;;;25.43;;
25980;SDS011;13772;52.996;9.124;2023-01-25T15:35:03;44.17;;;24.57;;
25980;SDS011;13772;52.996;9.124;2023-01-25T15:37:31;43.27;;;24.33;;
25980;SDS011;13772;52.996;9.124;2023-01-25T15:39:56;42.07;;;24.10;;
25980;SDS011;13772;52.996;9.124;2023-01-25T15:42:21;39.20;;;23.37;;
25980;SDS011;13772;52.996;9.124;2023-01-25T15:44:46;45.50;;;25.57;;
25980;SDS011;13772;52.996;9.124;2023-01-25T15:47:11;41.43;;;24.10;;
25980;SDS011;13772;52.996;9.124;2023-01-25T15:49:37;43.77;;;24.43;;
25980;SDS011;13772;52.996;9.124;2023-01-25T15:52:03;43.27;;;23.83;;
25980;SDS011;13772;52.996;9.124;2023-01-25T15:54:30;45.70;;;24.27;;
25980;SDS011;13772;52.996;9.124;2023-01-25T15:56:56;41.40;;;23.03;;
25980;SDS011;13772;52.996;9.124;2023-01-25T15:59:22;41.97;;;23.20;;
25980;SDS011;13772;52.996;9.124;2023-01-25T16:01:47;39.90;;;22.67;;
25980;SDS011;13772;52.996;9.124;2023-01-25T16:04:12;46.00;;;24.03;;
25980;SDS011;13772;52.996;9.124;2023-01-25T16:09:16;39.67;;;22.37;;
25980;SDS011;13772;52.996;9.124;2023-01-25T16:11:42;42.77;;;23.07;;
25980;SDS011;13772;52.996;9.124;2023-01-25T16:14:08;43.27;;;24.27;;
25980;SDS011;13772;52.996;9.124;2023-01-25T16:16:33;42.47;;;24.33;;
25980;SDS011;13772;52.996;9.124;2023-01-25T16:19:01;43.70;;;24.33;;
25980;SDS011;13772;52.996;9.124;2023-01-25T16:21:26;40.03;;;23.27;;
25980;SDS011;13772;52.996;9.124;2023-01-25T16:23:51;42.87;;;23.77;;
25980;SDS011;13772;52.996;9.124;2023-01-25T16:26:24;38.37;;;22.23;;
25980;SDS011;13772;52.996;9.124;2023-01-25T16:28:50;42.73;;;22.50;;
25980;SDS011;13772;52.996;9.124;2023-01-25T16:31:15;40.57;;;22.60;;
25980;SDS011;13772;52.996;9.124;2023-01-25T16:33:41;39.13;;;22.00;;
25980;SDS011;13772;52.996;9.124;2023-01-25T16:38:35;41.23;;;23.27;;
25980;SDS011;13772;52.996;9.124;2023-01-25T16:41:00;39.40;;;22.00;;
25980;SDS011;13772;52.996;9.124;2023-01-25T16:43:26;36.17;;;20.27;;
25980;SDS011;13772;52.996;9.124;2023-01-25T16:45:54;43.43;;;22.23;;
25980;SDS011;13772;52.996;9.124;2023-01-25T16:48:20;37.75;;;19.48;;
25980;SDS011;13772;52.996;9.124;2023-01-25T16:50:47;39.43;;;21.30;;
25980;SDS011;13772;52.996;9.124;2023-01-25T16:53:13;40.63;;;22.20;;
25980;SDS011;13772;52.996;9.124;2023-01-25T16:55:38;42.67;;;21.37;;
25980;SDS011;13772;52.996;9.124;2023-01-25T16:58:03;42.93;;;22.37;;
25980;SDS011;13772;52.996;9.124;2023-01-25T17:00:28;41.17;;;22.40;;
25980;SDS011;13772;52.996;9.124;2023-01-25T17:02:54;43.67;;;23.20;;
25980;SDS011;13772;52.996;9.124;2023-01-25T17:05:19;37.93;;;20.33;;
25980;SDS011;13772;52.996;9.124;2023-01-25T17:07:47;42.63;;;24.70;;
25980;SDS011;13772;52.996;9.124;2023-01-25T17:10:13;43.77;;;24.40;;
25980;SDS011;13772;52.996;9.124;2023-01-25T17:12:38;43.23;;;23.43;;
25980;SDS011;13772;52.996;9.124;2023-01-25T17:15:03;45.07;;;23.60;;
25980;SDS011;13772;52.996;9.124;2023-01-25T17:17:29;43.47;;;22.13;;
25980;SDS011;13772;52.996;9.124;2023-01-25T17:19:55;41.43;;;22.37;;
25980;SDS011;13772;52.996;9.124;2023-01-25T17:22:20;41.13;;;21.53;;
25980;SDS011;13772;52.996;9.124;2023-01-25T17:24:45;43.63;;;21.73;;
25980;SDS011;13772;52.996;9.124;2023-01-25T17:27:11;42.17;;;23.03;;
25980;SDS011;13772;52.996;9.124;2023-01-25T17:29:36;42.13;;;21.77;;
25980;SDS011;13772;52.996;9.124;2023-01-25T17:32:01;42.73;;;23.57;;
25980;SDS011;13772;52.996;9.124;2023-01-25T17:34:27;44.47;;;24.47;;
25980;SDS011;13772;52.996;9.124;2023-01-25T17:36:52;42.43;;;23.97;;
25980;SDS011;13772;52.996;9.124;2023-01-25T17:39:18;41.87;;;22.57;;
25980;SDS011;13772;52.996;9.124;2023-01-25T17:41:44;43.00;;;22.70;;
25980;SDS011;13772;52.996;9.124;2023-01-25T17:44:10;41.43;;;21.80;;
25980;SDS011;13772;52.996;9.124;2023-01-25T17:46:35;44.73;;;24.23;;
25980;SDS011;13772;52.996;9.124;2023-01-25T17:49:05;42.93;;;23.37;;
25980;SDS011;13772;52.996;9.124;2023-01-25T17:51:31;42.00;;;22.97;;
25980;SDS011;13772;52.996;9.124;2023-01-25T17:53:57;48.10;;;23.83;;
25980;SDS011;13772;52.996;9.124;2023-01-25T17:56:23;46.13;;;22.77;;
25980;SDS011;13772;52.996;9.124;2023-01-25T17:58:48;44.37;;;23.20;;
25980;SDS011;13772;52.996;9.124;2023-01-25T18:01:15;48.00;;;23.97;;
25980;SDS011;13772;52.996;9.124;2023-01-25T18:03:40;46.93;;;24.80;;
25980;SDS011;13772;52.996;9.124;2023-01-25T18:06:06;50.73;;;26.43;;
25980;SDS011;13772;52.996;9.124;2023-01-25T18:08:40;52.33;;;24.50;;
25980;SDS011;13772;52.996;9.124;2023-01-25T18:11:09;49.30;;;25.30;;
25980;SDS011;13772;52.996;9.124;2023-01-25T18:13:41;51.10;;;26.17;;
25980;SDS011;13772;52.996;9.124;2023-01-25T18:16:07;55.93;;;26.63;;
25980;SDS011;13772;52.996;9.124;2023-01-25T18:18:33;48.27;;;24.63;;
25980;SDS011;13772;52.996;9.124;2023-01-25T18:21:12;47.57;;;26.17;;
25980;SDS011;13772;52.996;9.124;2023-01-25T18:23:38;53.70;;;26.37;;
25980;SDS011;13772;52.996;9.124;2023-01-25T18:26:03;49.60;;;27.33;;
25980;SDS011;13772;52.996;9.124;2023-01-25T18:28:30;49.03;;;25.93;;
25980;SDS011;13772;52.996;9.124;2023-01-25T18:30:59;56.77;;;28.97;;
25980;SDS011;13772;52.996;9.124;2023-01-25T18:33:25;58.00;;;28.30;;
25980;SDS011;13772;52.996;9.124;2023-01-25T18:35:50;52.60;;;28.00;;
25980;SDS011;13772;52.996;9.124;2023-01-25T18:38:16;58.07;;;30.50;;
25980;SDS011;13772;52.996;9.124;2023-01-25T18:40:41;55.70;;;28.07;;
25980;SDS011;13772;52.996;9.124;2023-01-25T18:43:08;61.10;;;29.30;;
25980;SDS011;13772;52.996;9.124;2023-01-25T18:45:34;54.43;;;28.53;;
25980;SDS011;13772;52.996;9.124;2023-01-25T18:47:59;59.47;;;30.43;;
25980;SDS011;13772;52.996;9.124;2023-01-25T18:50:25;55.47;;;29.37;;
25980;SDS011;13772;52.996;9.124;2023-01-25T18:52:50;54.83;;;29.03;;
25980;SDS011;13772;52.996;9.124;2023-01-25T18:55:15;55.00;;;29.87;;
25980;SDS011;13772;52.996;9.124;2023-01-25T18:57:41;56.90;;;29.37;;
25980;SDS011;13772;52.996;9.124;2023-01-25T19:00:06;54.60;;;27.60;;
25980;SDS011;13772;52.996;9.124;2023-01-25T19:02:35;55.60;;;29.13;;
25980;SDS011;13772;52.996;9.124;2023-01-25T19:05:00;56.77;;;29.17;;
25980;SDS011;13772;52.996;9.124;2023-01-25T19:07:25;54.63;;;28.27;;
25980;SDS011;13772;52.996;9.124;2023-01-25T19:09:51;61.23;;;31.63;;
25980;SDS011;13772;52.996;9.124;2023-01-25T19:12:16;58.23;;;28.33;;
25980;SDS011;13772;52.996;9.124;2023-01-25T19:14:41;57.17;;;28.40;;
25980;SDS011;13772;52.996;9.124;2023-01-25T19:17:06;62.50;;;29.67;;
25980;SDS011;13772;52.996;9.124;2023-01-25T19:19:32;60.80;;;29.50;;
25980;SDS011;13772;52.996;9.124;2023-01-25T19:22:01;63.50;;;30.77;;
25980;SDS011;13772;52.996;9.124;2023-01-25T19:24:26;62.70;;;32.03;;
25980;SDS011;13772;52.996;9.124;2023-01-25T19:26:51;61.03;;;29.83;;
25980;SDS011;13772;52.996;9.124;2023-01-25T19:29:20;62.07;;;29.00;;
25980;SDS011;13772;52.996;9.124;2023-01-25T19:31:45;62.10;;;28.93;;
25980;SDS011;13772;52.996;9.124;2023-01-25T19:34:10;61.00;;;28.60;;
25980;SDS011;13772;52.996;9.124;2023-01-25T19:36:36;62.37;;;28.97;;
25980;SDS011;13772;52.996;9.124;2023-01-25T19:39:03;62.20;;;30.47;;
25980;SDS011;13772;52.996;9.124;2023-01-25T19:41:29;66.73;;;30.97;;
25980;SDS011;13772;52.996;9.124;2023-01-25T19:43:55;63.33;;;31.67;;
25980;SDS011;13772;52.996;9.124;2023-01-25T19:46:21;67.47;;;33.63;;
25980;SDS011;13772;52.996;9.124;2023-01-25T19:48:48;63.50;;;32.33;;
25980;SDS011;13772;52.996;9.124;2023-01-25T19:51:17;61.83;;;28.83;;
25980;SDS011;13772;52.996;9.124;2023-01-25T19:53:43;60.08;;;28.35;;
25980;SDS011;13772;52.996;9.124;2023-01-25T19:56:10;56.90;;;28.73;;
25980;SDS011;13772;52.996;9.124;2023-01-25T19:58:36;56.07;;;28.40;;
25980;SDS011;13772;52.996;9.124;2023-01-25T20:01:09;55.13;;;27.50;;
25980;SDS011;13772;52.996;9.124;2023-01-25T20:03:34;55.63;;;28.00;;
25980;SDS011;13772;52.996;9.124;2023-01-25T20:06:00;55.50;;;26.50;;
25980;SDS011;13772;52.996;9.124;2023-01-25T20:08:27;56.77;;;28.37;;
25980;SDS011;13772;52.996;9.124;2023-01-25T20:10:56;55.17;;;27.67;;
25980;SDS011;13772;52.996;9.124;2023-01-25T20:13:21;57.90;;;28.50;;
25980;SDS011;13772;52.996;9.124;2023-01-25T20:15:46;55.03;;;26.60;;
25980;SDS011;13772;52.996;9.124;2023-01-25T20:18:11;59.90;;;29.27;;
25980;SDS011;13772;52.996;9.124;2023-01-25T20:20:37;55.80;;;28.03;;
25980;SDS011;13772;52.996;9.124;2023-01-25T20:23:02;54.30;;;26.63;;
25980;SDS011;13772;52.996;9.124;2023-01-25T20:25:27;54.47;;;26.30;;
25980;SDS011;13772;52.996;9.124;2023-01-25T20:27:52;59.20;;;28.83;;
25980;SDS011;13772;52.996;9.124;2023-01-25T20:30:17;55.03;;;27.20;;
25980;SDS011;13772;52.996;9.124;2023-01-25T20:32:43;56.37;;;28.33;;
25980;SDS011;13772;52.996;9.124;2023-01-25T20:35:08;58.20;;;28.67;;
25980;SDS011;13772;52.996;9.124;2023-01-25T20:37:33;55.77;;;27.67;;
25980;SDS011;13772;52.996;9.124;2023-01-25T20:39:58;57.00;;;28.57;;
25980;SDS011;13772;52.996;9.124;2023-01-25T20:42:24;60.87;;;30.10;;
25980;SDS011;13772;52.996;9.124;2023-01-25T20:44:49;59.77;;;28.80;;
25980;SDS011;13772;52.996;9.124;2023-01-25T20:47:14;59.67;;;29.80;;
25980;SDS011;13772;52.996;9.124;2023-01-25T20:49:39;59.37;;;28.90;;
25980;SDS011;13772;52.996;9.124;2023-01-25T20:52:05;60.97;;;29.27;;
25980;SDS011;13772;52.996;9.124;2023-01-25T20:54:31;57.07;;;28.77;;
25980;SDS011;13772;52.996;9.124;2023-01-25T20:56:56;64.00;;;30.23;;
25980;SDS011;13772;52.996;9.124;2023-01-25T20:59:22;53.90;;;26.57;;
25980;SDS011;13772;52.996;9.124;2023-01-25T21:01:47;62.40;;;29.03;;
25980;SDS011;13772;52.996;9.124;2023-01-25T21:04:14;63.90;;;30.57;;
25980;SDS011;13772;52.996;9.124;2023-01-25T21:06:39;62.40;;;28.30;;
25980;SDS011;13772;52.996;9.124;2023-01-25T21:09:04;56.80;;;27.70;;
25980;SDS011;13772;52.996;9.124;2023-01-25T21:11:30;59.87;;;28.00;;
25980;SDS011;13772;52.996;9.124;2023-01-25T21:13:56;56.03;;;26.60;;
25980;SDS011;13772;52.996;9.124;2023-01-25T21:16:23;58.30;;;28.17;;
25980;SDS011;13772;52.996;9.124;2023-01-25T21:18:50;61.97;;;26.87;;
25980;SDS011;13772;52.996;9.124;2023-01-25T21:23:47;59.30;;;27.77;;
25980;SDS011;13772;52.996;9.124;2023-01-25T21:26:14;59.70;;;27.07;;
25980;SDS011;13772;52.996;9.124;2023-01-25T21:28:40;66.87;;;30.43;;
25980;SDS011;13772;52.996;9.124;2023-01-25T21:31:12;56.67;;;26.53;;
25980;SDS011;13772;52.996;9.124;2023-01-25T21:33:38;61.23;;;30.57;;
25980;SDS011;13772;52.996;9.124;2023-01-25T21:36:04;60.00;;;28.00;;
25980;SDS011;13772;52.996;9.124;2023-01-25T21:38:33;59.47;;;29.33;;
25980;SDS011;13772;52.996;9.124;2023-01-25T21:40:59;57.73;;;28.20;;
25980;SDS011;13772;52.996;9.124;2023-01-25T21:43:25;62.37;;;28.60;;
25980;SDS011;13772;52.996;9.124;2023-01-25T21:45:50;57.77;;;28.17;;
25980;SDS011;13772;52.996;9.124;2023-01-25T21:48:34;62.63;;;29.23;;
25980;SDS011;13772;52.996;9.124;2023-01-25T21:51:17;67.03;;;29.53;;
25980;SDS011;13772;52.996;9.124;2023-01-25T21:54:01;58.17;;;26.97;;
25980;SDS011;13772;52.996;9.124;2023-01-25T21:56:27;58.50;;;28.93;;
25980;SDS011;13772;52.996;9.124;2023-01-25T21:58:52;59.93;;;27.23;;
25980;SDS011;13772;52.996;9.124;2023-01-25T22:01:18;64.83;;;27.80;;
25980;SDS011;13772;52.996;9.124;2023-01-25T22:03:48;72.70;;;31.97;;
25980;SDS011;13772;52.996;9.124;2023-01-25T22:06:13;76.95;;;29.63;;
25980;SDS011;13772;52.996;9.124;2023-01-25T22:08:39;68.63;;;30.50;;
25980;SDS011;13772;52.996;9.124;2023-01-25T22:11:04;64.47;;;28.93;;
25980;SDS011;13772;52.996;9.124;2023-01-25T22:13:34;70.50;;;33.03;;
25980;SDS011;13772;52.996;9.124;2023-01-25T22:16:00;62.20;;;28.97;;
25980;SDS011;13772;52.996;9.124;2023-01-25T22:18:25;65.23;;;28.63;;
25980;SDS011;13772;52.996;9.124;2023-01-25T22:20:57;61.37;;;28.27;;
25980;SDS011;13772;52.996;9.124;2023-01-25T22:23:22;57.80;;;26.40;;
25980;SDS011;13772;52.996;9.124;2023-01-25T22:25:48;65.07;;;29.00;;
25980;SDS011;13772;52.996;9.124;2023-01-25T22:28:13;65.33;;;31.07;;
25980;SDS011;13772;52.996;9.124;2023-01-25T22:30:39;66.50;;;31.00;;
25980;SDS011;13772;52.996;9.124;2023-01-25T22:33:05;64.80;;;29.57;;
25980;SDS011;13772;52.996;9.124;2023-01-25T22:35:30;65.87;;;28.57;;
25980;SDS011;13772;52.996;9.124;2023-01-25T22:37:55;70.43;;;32.53;;
25980;SDS011;13772;52.996;9.124;2023-01-25T22:40:20;66.80;;;30.27;;
25980;SDS011;13772;52.996;9.124;2023-01-25T22:42:46;69.73;;;31.63;;
25980;SDS011;13772;52.996;9.124;2023-01-25T22:45:11;65.53;;;29.70;;
25980;SDS011;13772;52.996;9.124;2023-01-25T22:47:36;68.93;;;31.23;;
25980;SDS011;13772;52.996;9.124;2023-01-25T22:50:02;67.27;;;29.83;;
25980;SDS011;13772;52.996;9.124;2023-01-25T22:52:27;68.70;;;30.97;;
25980;SDS011;13772;52.996;9.124;2023-01-25T22:54:52;68.23;;;30.53;;
25980;SDS011;13772;52.996;9.124;2023-01-25T22:57:18;64.73;;;28.60;;
